Flight Track Log - Related Links

Times and Time Zones

All times are in EDT time to prevent confusion due to time zone crossing. See the SWA1034 flight status page for this flight to view local times or setup timezone preferences in your user account.

Time Position Orientation Groundspeed Altitude Reporting Facility
EDT Latitude Longitude Course Direction KTS MPH feet Rate Location/Type
Mon 08:36:44 PM 33.9500 -118.4667 99° East 168 193 1,700  Level Southern California TRACON
Mon 08:37:40 PM 33.9153 -118.5186 231° Southwest 204 235 3,600 1,983 Climbing Los Angeles Center
Mon 08:38:42 PM 33.8631 -118.5678 218° Southwest 247 284 5,600 2,371 Climbing Los Angeles Center
Mon 08:39:44 PM 33.7983 -118.5472 165° South 270 311 8,500 3,097 Climbing Los Angeles Center
Mon 08:40:46 PM 33.7050 -118.5175 165° South 295 339 12,000 3,000 Climbing Los Angeles Center
Mon 08:41:48 PM 33.6683 -118.4236 121° Southeast 319 367 14,700 2,194 Climbing Los Angeles Center
Mon 08:42:00 PM 33.8348 -117.5745 99° East  Level Estimated
Mon 08:42:00 PM 33.6443 -118.3719 121° Southeast  Level FlightAware Approximate
Mon 08:43:52 PM 33.6444 -118.1894 97° East 388 447 18,800  Level Los Angeles Center
Mon 08:44:53 PM 33.6442 -118.0278 90° East 405 466 21,200 2,049 Climbing Los Angeles Center
Mon 08:45:55 PM 33.6439 -117.8872 90° East 421 484 23,000 1,548 Climbing Los Angeles Center
Mon 08:46:57 PM 33.6433 -117.7406 90° East 437 503 24,400 1,548 Climbing Los Angeles Center
Mon 08:47:59 PM 33.6428 -117.5906 90° East 446 513 26,200 1,645 Climbing Los Angeles Center
Mon 08:49:01 PM 33.6417 -117.4347 90° East 461 531 27,800 1,694 Climbing Los Angeles Center
Mon 08:50:03 PM 33.6403 -117.2400 90° East 481 554 29,700 1,548 Climbing Los Angeles Center
Mon 08:51:05 PM 33.6386 -117.0753 91° East 491 565 31,000 1,548 Climbing Los Angeles Center
Mon 08:52:07 PM 33.6361 -116.9083 91° East 499 574 32,900 1,645 Climbing Los Angeles Center
Mon 08:53:09 PM 33.6381 -116.7389 89° East 501 577 34,400 1,548 Climbing Los Angeles Center
Mon 08:54:11 PM 33.6356 -116.5725 91° East 500 575 36,100 1,258 Climbing Los Angeles Center
Mon 08:55:13 PM 33.6328 -116.4097 91° East 492 566 37,000 435 Climbing Los Angeles Center
Mon 08:56:15 PM 33.6294 -116.2489 91° East 485 558 37,000  Level Los Angeles Center
Mon 08:57:17 PM 33.6256 -116.0531 91° East 488 562 37,000  Level Los Angeles Center
Mon 08:58:19 PM 33.6222 -115.8933 91° East 480 552 37,000  Level Los Angeles Center
Mon 08:59:21 PM 33.6197 -115.7342 91° East 478 550 37,000  Level Los Angeles Center
Mon 09:00:23 PM 33.6158 -115.5742 92° East 480 552 37,000  Level Los Angeles Center
Mon 09:01:25 PM 33.6106 -115.4136 92° East 482 555 37,000  Level Los Angeles Center
Mon 09:02:27 PM 33.5919 -115.2550 98° East 481 554 37,000  Level Los Angeles Center
Mon 09:03:29 PM 33.5717 -115.0994 99° East 475 547 37,000  Level Los Angeles Center
Mon 09:04:31 PM 33.5436 -114.9094 100° East 481 554 37,000  Level Los Angeles Center
Mon 09:05:33 PM 33.5172 -114.7500 101° East 484 557 37,000  Level Los Angeles Center
Mon 09:06:35 PM 33.4942 -114.5922 100° East 480 552 37,000  Level Los Angeles Center
Mon 09:07:37 PM 33.4733 -114.4375 99° East 475 547 37,000  Level Los Angeles Center
Mon 09:08:19 PM 33.4625 -114.3411 98° East 478 550 37,000  Level Albuquerque Center
Mon 09:09:20 PM 33.4408 -114.1858 99° East 474 545 37,000  Level Albuquerque Center
Mon 09:10:21 PM 33.4131 -113.9994 100° East 474 545 37,000  Level Albuquerque Center
Mon 09:11:23 PM 33.3894 -113.8447 100° East 473 544 37,000  Level Albuquerque Center
Mon 09:12:26 PM 33.3664 -113.6883 100° East 475 547 37,000  Level Albuquerque Center
Mon 09:13:27 PM 33.3417 -113.5333 101° East 474 545 37,000  Level Albuquerque Center
Mon 09:14:30 PM 33.3172 -113.3789 101° East 474 545 37,000  Level Albuquerque Center
Mon 09:15:31 PM 33.2922 -113.2256 101° East 472 543 37,000  Level Albuquerque Center
Mon 09:16:33 PM 33.2681 -113.0703 101° East 472 543 37,000  Level Albuquerque Center
Mon 09:17:34 PM 33.2444 -112.9114 100° East 478 550 37,000  Level Albuquerque Center
Mon 09:18:35 PM 33.2192 -112.7564 101° East 476 548 37,000  Level Albuquerque Center
Mon 09:19:35 PM 33.1897 -112.5753 101° East 475 547 37,000  Level Albuquerque Center
Mon 09:20:38 PM 33.1644 -112.4214 101° East 476 548 37,000  Level Albuquerque Center
Mon 09:21:40 PM 33.1386 -112.2672 101° East 477 549 37,000  Level Albuquerque Center
Mon 09:22:41 PM 33.1131 -112.1133 101° East 477 549 37,000  Level Albuquerque Center
Mon 09:23:41 PM 33.0878 -111.9594 101° East 476 548 37,000  Level Albuquerque Center
Mon 09:24:45 PM 33.0628 -111.8058 101° East 475 547 37,000  Level Albuquerque Center
Mon 09:25:46 PM 33.0311 -111.6236 102° East 473 544 37,000  Level Albuquerque Center
Mon 09:26:46 PM 33.0056 -111.4708 101° East 472 543 37,000  Level Albuquerque Center
Mon 09:27:50 PM 32.9789 -111.3172 102° East 476 548 37,000  Level Albuquerque Center
Mon 09:28:49 PM 32.9528 -111.1631 101° East 476 548 37,000  Level Albuquerque Center
Mon 09:29:51 PM 32.9253 -111.0103 102° East 477 549 37,000  Level Albuquerque Center
Mon 09:30:52 PM 32.8989 -110.8572 102° East 475 547 37,000  Level Albuquerque Center
Mon 09:31:53 PM 32.8708 -110.7044 102° East 475 547 37,000  Level Albuquerque Center
Mon 09:32:55 PM 32.8431 -110.5453 102° East 475 547 37,000  Level Albuquerque Center
Mon 09:33:56 PM 32.8153 -110.3944 102° East 471 542 37,000  Level Albuquerque Center
Mon 09:34:57 PM 32.7828 -110.2114 102° East 473 544 37,000  Level Albuquerque Center
Mon 09:36:01 PM 32.7539 -110.0589 103° East 473 544 37,000  Level Albuquerque Center
Mon 09:37:01 PM 32.7236 -109.9064 103° East 477 549 37,000  Level Albuquerque Center
Mon 09:38:02 PM 32.6947 -109.7556 103° East 474 545 37,000  Level Albuquerque Center
Mon 09:39:03 PM 32.6669 -109.6047 102° East 471 542 37,000  Level Albuquerque Center
Mon 09:40:07 PM 32.6383 -109.4536 103° East 472 543 37,000  Level Albuquerque Center
Mon 09:41:07 PM 32.6100 -109.3017 102° East 475 547 37,000 -248 Level Albuquerque Center
Mon 09:42:08 PM 32.5756 -109.1217 103° East 474 545 36,500 -732 Descending Albuquerque Center
Mon 09:43:10 PM 32.5458 -108.9708 103° East 474 545 35,500 -919 Descending Albuquerque Center
Mon 09:44:12 PM 32.5167 -108.8206 103° East 474 545 34,600 -942 Descending Albuquerque Center
Mon 09:45:11 PM 32.4875 -108.6706 103° East 473 544 33,600 -780 Descending Albuquerque Center
Mon 09:46:15 PM 32.4583 -108.5225 103° East 467 537 33,000 -288 Descending Albuquerque Center
Mon 09:47:16 PM 32.4308 -108.3794 103° East 461 531 33,000  Level Albuquerque Center
Mon 09:48:17 PM 32.3956 -108.2053 103° East 456 525 33,000  Level Albuquerque Center
Mon 09:49:19 PM 32.3661 -108.0603 103° East 455 524 33,000  Level Albuquerque Center
Mon 09:50:18 PM 32.3147 -107.9256 114° Southeast 454 522 33,000  Level Albuquerque Center
Mon 09:51:20 PM 32.2661 -107.7883 113° Southeast 454 522 33,000 -1,463 Level Albuquerque Center
Mon 09:52:21 PM 32.2161 -107.6522 113° Southeast 455 524 30,000 -3,295 Descending Albuquerque Center
Mon 09:53:22 PM 32.1664 -107.5131 113° Southeast 461 531 26,300 -3,639 Descending Albuquerque Center
Mon 09:54:23 PM 32.1147 -107.3767 114° Southeast 461 531 22,600 -3,938 Descending Albuquerque Center
Mon 09:55:30 PM 32.0522 -107.2094 114° Southeast 443 510 17,900 -4,024 Descending Albuquerque Center
Mon 09:55:48 PM 32.0369 -107.1706 115° Southeast 436 502 16,900 -2,897 Descending Albuquerque Center
Mon 09:56:28 PM 32.0094 -107.0911 112° Southeast 436 502 15,100 -2,727 Descending Albuquerque Center
Mon 09:56:43 PM 32.0039 -107.0558 101° East 401 461 14,400 -2,300 Descending Albuquerque Center
Mon 09:57:28 PM 31.9972 -106.9700 95° East 386 444 12,800 -2,129 Descending Albuquerque Center
Mon 09:57:45 PM 31.9931 -106.9336 98° East 362 417 12,200 -1,839 Descending Albuquerque Center
Mon 09:58:30 PM 31.9906 -106.8519 92° East 371 427 10,900 -1,300 Descending Albuquerque Center
Mon 09:58:45 PM 31.9875 -106.8297 99° East 354 407 10,900  Level Albuquerque Center
Mon 09:59:30 PM 31.9831 -106.7403 93° East 355 409 10,900 100 Level Albuquerque Center
Mon 09:59:45 PM 31.9789 -106.7092 99° East 323 372 11,000 -474 Climbing Albuquerque Center
Mon 10:00:46 PM 31.9728 -106.6156 94° East 274 315 10,300 -833 Descending Albuquerque Center
Mon 10:01:33 PM 31.9706 -106.5556 92° East 281 323 9,500 -1,300 Descending Albuquerque Center
Mon 10:01:46 PM 31.9675 -106.5269 97° East 273 314 9,000 -590 Descending Albuquerque Center
Mon 10:02:34 PM 31.9642 -106.4669 94° East 274 315 8,900  Descending Albuquerque Center
Mon 10:02:47 PM 31.9622 -106.4381 95° East 272 313 9,000  Climbing Albuquerque Center
Mon 10:03:35 PM 31.9594 -106.3853 94° East 252 290 8,900  Descending Albuquerque Center
Mon 10:03:47 PM 31.9567 -106.3594 97° East 233 268 9,000 -1,100 Climbing Albuquerque Center
Mon 10:04:35 PM 31.9353 -106.3067 116° Southeast 235 270 7,800 -1,100 Descending Albuquerque Center
Mon 10:04:47 PM 31.9250 -106.3022 160° South 230 265 7,900 286 Climbing Albuquerque Center
Mon 10:05:38 PM 31.8969 -106.2722 138° Southeast 205 236 8,100 -200 Climbing Albuquerque Center
Mon 10:05:47 PM 31.8822 -106.2678 166° South 144 166 7,700 -2,164 Descending Albuquerque Center
Mon 10:06:39 PM 31.8678 -106.3022 244° Southwest 164 189 5,900 -2,066 Descending Albuquerque Center
Mon 10:06:48 PM 31.8647 -106.3122 250° West 165 190 5,600 -1,355 Descending Albuquerque Center
Mon 10:07:41 PM 31.8411 -106.3439 229° Southwest 162 186 4,500 -1,258 Descending Albuquerque Center
Mon 10:07:50 PM 31.8358 -106.3519 232° Southwest 158 182 4,300 -700 Descending Albuquerque Center
Mon 10:08:41 PM 31.8172 -106.3761 228° Southwest 153 176 3,800 -588 Descending Albuquerque Center
Mon 10:10:00 PM 31.8072 -106.3764 229° Southwest  Level Estimated
Mon 10:17:00 PM 31.8072 -106.3764 229° Southwest  Level Estimated
Mon 10:18:00 PM 31.8072 -106.3764 229° Southwest  Level Estimated
Mon 10:19:00 PM 31.8072 -106.3764 229° Southwest  Level Estimated

Login

Don't have an account? Register now (free) for customized features, flight alerts, and more!